Time;durP1;ratioP1;P1;durP2;ratioP2;P2;SDS_P1;SDS_P2;PMS_P1;PMS_P2;Temp;Humidity;BMP_temperature;BMP_pressure;BME280_temperature;BME280_humidity;BME280_pressure;Samples;Min_cycle;Max_cycle;Signal;HPM_P1;HPM_P2
2021/04/18 00:01:29;;;;;;;6.20;5.53;;;6.40;99.90;;;;;;4691380;30;20428;-79
2021/04/18 00:03:55;;;;;;;6.95;6.25;;;6.40;99.90;;;;;;4676308;30;20432;-79
2021/04/18 00:06:21;;;;;;;7.23;6.20;;;6.50;99.90;;;;;;4692873;30;20413;-79
2021/04/18 00:08:47;;;;;;;8.13;7.13;;;6.40;99.90;;;;;;4672713;30;20926;-79
2021/04/18 00:11:13;;;;;;;8.68;7.30;;;6.50;99.90;;;;;;4693637;30;20433;-78
2021/04/18 00:13:39;;;;;;;7.30;6.00;;;6.50;99.90;;;;;;4683804;30;20429;-78
2021/04/18 00:16:05;;;;;;;10.03;7.93;;;6.50;99.90;;;;;;4673355;30;20944;-78
2021/04/18 00:18:31;;;;;;;9.77;6.63;;;6.50;99.90;;;;;;4682999;30;20556;-79
2021/04/18 00:20:56;;;;;;;8.98;6.68;;;6.50;99.90;;;;;;4688619;30;20528;-79
2021/04/18 00:23:22;;;;;;;12.40;7.03;;;6.60;99.90;;;;;;4679911;30;20514;-79
2021/04/18 00:25:48;;;;;;;9.82;7.22;;;6.60;99.90;;;;;;4674756;30;20884;-79
2021/04/18 00:28:14;;;;;;;10.02;7.43;;;6.60;99.90;;;;;;4681254;30;20433;-79
2021/04/18 00:30:39;;;;;;;9.93;7.63;;;6.60;99.90;;;;;;4682109;30;20577;-79
2021/04/18 00:33:05;;;;;;;8.80;7.45;;;6.70;99.90;;;;;;4681418;30;20429;-79
2021/04/18 00:35:31;;;;;;;12.27;7.45;;;6.60;99.90;;;;;;4675226;30;20425;-79
2021/04/18 00:37:57;;;;;;;10.77;7.87;;;6.60;99.90;;;;;;4679945;30;20512;-79
2021/04/18 00:40:23;;;;;;;15.27;9.25;;;6.70;99.90;;;;;;4676529;30;20433;-79
2021/04/18 00:42:49;;;;;;;11.57;8.85;;;6.60;99.90;;;;;;4673804;30;20433;-80
2021/04/18 00:45:15;;;;;;;10.23;7.45;;;6.70;99.90;;;;;;4697490;30;20432;-80
2021/04/18 00:47:46;;;;;;;11.13;7.43;;;6.70;99.90;;;;;;4657801;30;20412;-79
2021/04/18 00:50:13;;;;;;;10.27;7.45;;;6.80;99.90;;;;;;4646463;30;20434;-79
2021/04/18 00:52:39;;;;;;;11.35;7.45;;;6.80;99.90;;;;;;4685807;30;20510;-79
2021/04/18 00:55:06;;;;;;;10.50;8.35;;;6.90;99.90;;;;;;4689260;30;20513;-80
2021/04/18 00:57:32;;;;;;;9.90;7.40;;;6.90;99.90;;;;;;4680053;30;20414;-81
2021/04/18 01:00:03;;;;;;;10.68;7.82;;;6.90;99.90;;;;;;4684667;30;20427;-81
2021/04/18 01:02:29;;;;;;;10.90;8.02;;;7.00;99.90;;;;;;4664031;30;20494;-80
2021/04/18 01:04:57;;;;;;;10.77;7.35;;;6.90;99.90;;;;;;4665089;30;20427;-79
2021/04/18 01:07:23;;;;;;;11.38;7.28;;;6.90;99.90;;;;;;4664019;30;21146;-80
2021/04/18 01:09:49;;;;;;;7.50;6.72;;;7.00;99.90;;;;;;4693979;30;20434;-79
2021/04/18 01:12:15;;;;;;;8.25;6.65;;;7.10;99.90;;;;;;4682597;30;20875;-80
2021/04/18 01:14:41;;;;;;;10.27;7.20;;;7.00;99.90;;;;;;4695297;30;21146;-79
2021/04/18 01:17:07;;;;;;;9.38;7.25;;;7.00;99.90;;;;;;4661210;30;20504;-79
2021/04/18 01:19:33;;;;;;;13.88;7.50;;;7.00;99.90;;;;;;4698219;30;20413;-79
2021/04/18 01:21:59;;;;;;;8.68;6.80;;;7.00;99.90;;;;;;4690178;30;20922;-79
2021/04/18 01:24:36;;;;;;;8.50;6.83;;;7.00;99.90;;;;;;4682180;30;20496;-80
2021/04/18 01:27:25;;;;;;;7.72;6.28;;;7.00;99.90;;;;;;4678580;30;20446;-79
2021/04/18 01:29:51;;;;;;;7.65;6.32;;;7.00;99.90;;;;;;4675181;30;20720;-79
2021/04/18 01:32:19;;;;;;;7.15;6.22;;;7.10;99.90;;;;;;4680688;30;20453;-79
2021/04/18 01:34:45;;;;;;;8.13;6.88;;;7.10;99.90;;;;;;4672687;30;20500;-79
2021/04/18 01:37:12;;;;;;;9.17;6.80;;;7.20;99.90;;;;;;4681512;30;20421;-78
2021/04/18 01:39:38;;;;;;;8.70;6.85;;;7.10;99.90;;;;;;4680486;30;20832;-79
2021/04/18 01:42:05;;;;;;;7.78;6.72;;;7.10;99.90;;;;;;4681343;30;20555;-78
2021/04/18 01:44:31;;;;;;;7.90;6.50;;;7.10;99.90;;;;;;4675160;30;20433;-78
2021/04/18 01:46:57;;;;;;;7.53;6.72;;;7.10;99.90;;;;;;4680648;30;20780;-79
2021/04/18 01:49:23;;;;;;;9.90;7.10;;;7.10;99.90;;;;;;4681234;30;20437;-79
2021/04/18 01:51:49;;;;;;;11.20;7.07;;;7.00;99.90;;;;;;4680274;30;20435;-80
2021/04/18 01:54:15;;;;;;;11.75;8.00;;;7.10;99.90;;;;;;4689670;30;20439;-79
2021/04/18 01:56:42;;;;;;;9.82;7.18;;;6.90;99.90;;;;;;4680439;30;20435;-80
2021/04/18 01:59:09;;;;;;;9.20;6.78;;;7.00;99.90;;;;;;4692707;30;20425;-79
2021/04/18 02:02:10;;;;;;;7.93;6.60;;;7.10;99.90;;;;;;4687730;30;20443;-79
2021/04/18 02:04:42;;;;;;;8.43;6.72;;;7.10;99.90;;;;;;4671009;30;20437;-81
2021/04/18 02:07:09;;;;;;;6.30;5.70;;;7.10;99.90;;;;;;4682479;30;20820;-78
2021/04/18 02:09:36;;;;;;;8.25;7.20;;;7.20;99.90;;;;;;4677074;30;20429;-78
2021/04/18 02:12:07;;;;;;;7.63;6.80;;;7.20;99.90;;;;;;4693052;30;20433;-79
2021/04/18 02:14:38;;;;;;;10.50;7.40;;;7.20;99.90;;;;;;4674974;30;20500;-79
2021/04/18 02:17:07;;;;;;;8.55;6.15;;;7.20;99.90;;;;;;4689765;30;20433;-80
2021/04/18 02:19:33;;;;;;;7.07;6.38;;;7.30;99.90;;;;;;4681588;30;20429;-80
2021/04/18 02:21:59;;;;;;;7.05;6.35;;;7.30;99.90;;;;;;4669896;30;20437;-79
2021/04/18 02:24:25;;;;;;;7.35;6.63;;;7.30;99.90;;;;;;4677730;30;20937;-79
2021/04/18 02:26:51;;;;;;;7.28;5.97;;;7.30;99.90;;;;;;4664258;30;20425;-80
2021/04/18 02:29:34;;;;;;;7.97;6.40;;;7.30;99.90;;;;;;4682566;30;20493;-78
2021/04/18 02:32:07;;;;;;;7.38;6.38;;;7.30;99.90;;;;;;4673581;30;20438;-79
2021/04/18 02:34:37;;;;;;;6.95;6.07;;;7.40;99.90;;;;;;4678002;30;20513;-80
2021/04/18 02:37:03;;;;;;;10.70;6.10;;;7.40;99.90;;;;;;4677958;30;20435;-80
2021/04/18 02:39:29;;;;;;;7.30;5.95;;;7.40;99.90;;;;;;4680265;30;20485;-80
2021/04/18 02:41:56;;;;;;;7.20;5.25;;;7.50;99.90;;;;;;4687487;30;20443;-80
2021/04/18 02:44:23;;;;;;;7.97;6.18;;;7.50;99.90;;;;;;4681974;30;20449;-79
2021/04/18 02:46:49;;;;;;;7.45;5.50;;;7.50;99.90;;;;;;4687185;30;20424;-80
2021/04/18 02:49:15;;;;;;;6.47;5.78;;;7.60;99.90;;;;;;4687182;30;20806;-80
2021/04/18 02:51:42;;;;;;;6.28;5.65;;;7.50;99.90;;;;;;4671065;30;20935;-80
2021/04/18 02:54:10;;;;;;;9.20;6.63;;;7.60;99.90;;;;;;4671219;30;20494;-80
2021/04/18 02:56:38;;;;;;;7.72;5.90;;;7.60;99.90;;;;;;4677825;30;20448;-79
2021/04/18 02:59:08;;;;;;;8.43;6.43;;;7.60;99.90;;;;;;4673337;30;20433;-80
2021/04/18 03:01:34;;;;;;;6.20;5.60;;;7.60;99.90;;;;;;4677549;30;20795;-80
2021/04/18 03:04:01;;;;;;;7.75;6.53;;;7.60;99.90;;;;;;4664078;30;20510;-81
2021/04/18 03:06:27;;;;;;;7.50;5.68;;;7.60;99.90;;;;;;4671464;30;20461;-80
2021/04/18 03:08:53;;;;;;;7.00;6.18;;;7.60;99.90;;;;;;4677267;30;20417;-81
2021/04/18 03:11:19;;;;;;;7.35;6.15;;;7.60;99.90;;;;;;4666868;30;20979;-80
2021/04/18 03:13:47;;;;;;;8.85;6.63;;;7.50;99.90;;;;;;4663946;30;20528;-81
2021/04/18 03:16:15;;;;;;;7.07;6.35;;;7.60;99.90;;;;;;4677257;30;20421;-80
2021/04/18 03:18:42;;;;;;;7.20;6.18;;;7.60;99.90;;;;;;4681163;30;20482;-80
2021/04/18 03:21:09;;;;;;;7.22;6.35;;;7.60;99.90;;;;;;4681950;30;20519;-80
2021/04/18 03:23:36;;;;;;;8.25;6.72;;;7.60;99.90;;;;;;4686079;30;20517;-81
2021/04/18 03:26:03;;;;;;;7.68;6.38;;;7.60;99.90;;;;;;4656327;30;20426;-81
2021/04/18 03:28:30;;;;;;;7.75;5.97;;;7.70;99.90;;;;;;4662943;30;20439;-81
2021/04/18 03:30:57;;;;;;;7.82;6.25;;;7.60;99.90;;;;;;4664475;30;20439;-80
2021/04/18 03:33:26;;;;;;;7.95;7.13;;;7.70;99.90;;;;;;4676682;30;20431;-80
2021/04/18 03:36:02;;;;;;;8.00;6.63;;;7.60;99.90;;;;;;4655724;30;20481;-81
2021/04/18 03:38:31;;;;;;;8.65;6.40;;;7.60;99.90;;;;;;4643344;30;20439;-80
2021/04/18 03:40:56;;;;;;;9.10;7.05;;;7.50;99.90;;;;;;4610089;30;20512;-80
2021/04/18 03:43:22;;;;;;;9.02;7.03;;;7.50;99.90;;;;;;4657393;30;20430;-80
2021/04/18 03:45:48;;;;;;;8.60;7.45;;;7.50;99.90;;;;;;4682593;30;20468;-81
2021/04/18 03:48:15;;;;;;;8.18;6.72;;;7.50;99.90;;;;;;4667260;30;20440;-80
2021/04/18 03:50:41;;;;;;;9.52;6.72;;;7.50;99.90;;;;;;4691916;30;20441;-80
2021/04/18 03:53:16;;;;;;;10.68;7.03;;;7.60;99.90;;;;;;4671221;30;20781;-79
2021/04/18 03:55:47;;;;;;;9.55;7.45;;;7.60;99.90;;;;;;4665470;30;20425;-79
2021/04/18 03:58:15;;;;;;;8.87;7.43;;;7.60;99.90;;;;;;4659922;30;20411;-80
2021/04/18 04:00:47;;;;;;;9.10;7.25;;;7.60;99.90;;;;;;4679431;30;20444;-79
2021/04/18 04:03:13;;;;;;;9.75;7.50;;;7.70;99.90;;;;;;4680228;30;20851;-80
2021/04/18 04:05:43;;;;;;;10.65;6.93;;;7.60;99.90;;;;;;4675197;30;20949;-80
2021/04/18 04:08:12;;;;;;;9.80;7.23;;;7.70;99.90;;;;;;4679831;30;20468;-77
2021/04/18 04:10:38;;;;;;;11.43;8.00;;;7.70;99.90;;;;;;4665729;30;20433;-79
2021/04/18 04:13:04;;;;;;;9.30;7.55;;;7.70;99.90;;;;;;4680918;30;20438;-80
2021/04/18 04:15:32;;;;;;;10.63;7.57;;;7.60;99.90;;;;;;4666459;30;21009;-79
2021/04/18 04:17:59;;;;;;;10.70;8.30;;;7.70;99.90;;;;;;4688362;30;20511;-79
2021/04/18 04:20:40;;;;;;;8.75;7.38;;;7.70;99.90;;;;;;4679493;30;20422;-79
2021/04/18 04:23:17;;;;;;;11.07;8.50;;;7.70;99.90;;;;;;4680746;30;20445;-79
2021/04/18 04:25:42;;;;;;;9.60;8.02;;;7.60;99.90;;;;;;4675682;30;20421;-79
2021/04/18 04:28:08;;;;;;;10.30;8.00;;;7.60;99.90;;;;;;4682802;30;20573;-80
2021/04/18 04:30:34;;;;;;;10.05;7.30;;;7.60;99.90;;;;;;4686642;30;20418;-79
2021/04/18 04:33:00;;;;;;;8.23;7.28;;;7.60;99.90;;;;;;4684207;30;20441;-79
2021/04/18 04:35:26;;;;;;;9.93;7.83;;;7.60;99.90;;;;;;4694844;30;20425;-79
2021/04/18 04:37:51;;;;;;;10.70;7.93;;;7.60;99.90;;;;;;4674333;30;20980;-79
2021/04/18 04:40:17;;;;;;;8.50;7.65;;;7.70;99.90;;;;;;4676365;30;20433;-78
2021/04/18 04:42:43;;;;;;;10.80;8.33;;;7.60;99.90;;;;;;4666847;30;20446;-79
2021/04/18 04:45:09;;;;;;;11.03;8.23;;;7.60;99.90;;;;;;4676507;30;20493;-79
2021/04/18 04:47:35;;;;;;;9.45;7.90;;;7.60;99.90;;;;;;4679275;30;20434;-79
2021/04/18 04:50:00;;;;;;;12.55;9.20;;;7.70;99.90;;;;;;4679365;30;20433;-80
2021/04/18 04:52:26;;;;;;;10.73;8.90;;;7.80;99.90;;;;;;4679640;30;20426;-80
2021/04/18 04:54:52;;;;;;;9.13;7.80;;;7.70;99.90;;;;;;4668975;30;20418;-80
2021/04/18 04:57:18;;;;;;;12.77;9.30;;;7.60;99.90;;;;;;4662959;30;20449;-78
2021/04/18 04:59:43;;;;;;;13.47;9.00;;;7.60;99.90;;;;;;4667105;30;20430;-79
2021/04/18 05:02:09;;;;;;;11.65;8.32;;;7.50;99.90;;;;;;4679365;30;20514;-78
2021/04/18 05:04:35;;;;;;;12.20;8.88;;;7.60;99.90;;;;;;4674633;30;20455;-78
2021/04/18 05:07:01;;;;;;;12.40;8.32;;;7.60;99.90;;;;;;4677184;30;20559;-79
2021/04/18 05:09:27;;;;;;;10.33;7.73;;;7.70;99.90;;;;;;4679097;30;20816;-80
2021/04/18 05:11:52;;;;;;;9.07;7.97;;;7.70;99.90;;;;;;4666991;30;20430;-78
2021/04/18 05:14:18;;;;;;;10.70;8.70;;;7.70;99.90;;;;;;4678704;30;20421;-79
2021/04/18 05:16:44;;;;;;;13.35;9.05;;;7.70;99.90;;;;;;4678542;30;20838;-81
2021/04/18 05:19:09;;;;;;;11.67;7.93;;;7.70;99.90;;;;;;4678579;30;20476;-80
2021/04/18 05:21:35;;;;;;;11.47;9.40;;;7.80;99.90;;;;;;4686042;30;21157;-80
2021/04/18 05:24:01;;;;;;;10.13;9.07;;;7.70;99.90;;;;;;4700893;30;20430;-79
2021/04/18 05:26:26;;;;;;;11.30;9.47;;;7.70;99.90;;;;;;4678109;30;20428;-80
2021/04/18 05:28:53;;;;;;;12.90;10.02;;;7.70;99.90;;;;;;4671541;30;20433;-79
2021/04/18 05:31:19;;;;;;;10.52;8.80;;;7.90;99.90;;;;;;4668826;30;20437;-78
2021/04/18 05:33:45;;;;;;;10.48;9.38;;;7.80;99.90;;;;;;4659740;30;20815;-79
2021/04/18 05:36:11;;;;;;;12.17;9.50;;;7.70;99.90;;;;;;4679660;30;20437;-78
2021/04/18 05:38:37;;;;;;;13.30;9.32;;;7.70;99.90;;;;;;4691865;30;20448;-78
2021/04/18 05:41:03;;;;;;;9.95;8.80;;;7.70;99.90;;;;;;4678879;30;20442;-79
2021/04/18 05:43:28;;;;;;;11.70;9.13;;;7.70;99.90;;;;;;4678958;30;20469;-79
2021/04/18 05:45:54;;;;;;;9.67;8.67;;;7.60;99.90;;;;;;4674294;30;20457;-79
2021/04/18 05:48:19;;;;;;;10.68;9.45;;;7.70;99.90;;;;;;4685230;30;20448;-79
2021/04/18 05:50:46;;;;;;;11.80;8.63;;;7.70;99.90;;;;;;4677461;30;21681;-79
2021/04/18 05:53:13;;;;;;;10.95;9.77;;;7.70;99.90;;;;;;4679103;30;20445;-80
2021/04/18 05:55:38;;;;;;;12.15;10.30;;;7.70;99.90;;;;;;4689484;30;20433;-81
2021/04/18 05:58:05;;;;;;;12.82;10.13;;;7.60;99.90;;;;;;4715279;30;20438;-80
2021/04/18 06:00:31;;;;;;;13.00;9.77;;;7.60;99.90;;;;;;4690154;30;20417;-83
2021/04/18 06:02:56;;;;;;;11.65;9.30;;;7.60;99.90;;;;;;4703906;30;20484;-82
2021/04/18 06:05:22;;;;;;;11.80;9.48;;;7.50;99.90;;;;;;4700161;30;20442;-83
2021/04/18 06:07:48;;;;;;;9.07;8.17;;;7.50;99.90;;;;;;4694961;30;20848;-83
2021/04/18 06:10:14;;;;;;;9.55;8.40;;;7.60;99.90;;;;;;4709818;30;20414;-82
2021/04/18 06:12:39;;;;;;;8.20;7.22;;;7.50;99.90;;;;;;4705487;30;20440;-82
2021/04/18 06:15:06;;;;;;;10.10;7.53;;;7.40;99.90;;;;;;4706984;30;20438;-83
2021/04/18 06:17:32;;;;;;;8.27;6.28;;;7.50;99.90;;;;;;4697395;30;20514;-81
2021/04/18 06:19:58;;;;;;;8.33;6.73;;;7.40;99.90;;;;;;4700275;30;20442;-80
2021/04/18 06:22:23;;;;;;;8.50;6.70;;;7.50;99.90;;;;;;4701317;30;20434;-81
2021/04/18 06:24:49;;;;;;;7.05;6.18;;;7.50;99.90;;;;;;4700806;30;20517;-81
2021/04/18 06:27:15;;;;;;;7.17;5.87;;;7.60;99.90;;;;;;4674029;30;20525;-81
2021/04/18 06:29:40;;;;;;;6.65;5.88;;;7.50;99.90;;;;;;4683626;30;20427;-82
2021/04/18 06:32:59;;;;;;;7.43;6.70;;;7.60;99.90;;;;;;4680251;30;20453;-81
2021/04/18 06:35:34;;;;;;;6.70;5.80;;;7.60;99.90;;;;;;4706720;30;20416;-82
2021/04/18 06:38:00;;;;;;;6.63;5.70;;;7.50;99.90;;;;;;4708153;30;20485;-83
2021/04/18 06:40:25;;;;;;;5.73;5.17;;;7.40;99.90;;;;;;4696968;30;20500;-82
2021/04/18 06:42:53;;;;;;;6.07;5.38;;;7.50;99.90;;;;;;4690407;30;20457;-81
2021/04/18 06:45:19;;;;;;;5.78;5.22;;;7.50;99.90;;;;;;4679616;30;20435;-80
2021/04/18 06:47:44;;;;;;;5.47;4.93;;;7.60;99.90;;;;;;4681657;30;20442;-81
2021/04/18 06:50:10;;;;;;;4.82;4.43;;;7.60;99.90;;;;;;4704555;30;20496;-81
2021/04/18 06:52:36;;;;;;;6.60;5.80;;;7.50;99.90;;;;;;4701023;30;20448;-81
2021/04/18 06:55:03;;;;;;;5.13;4.63;;;7.70;99.90;;;;;;4679982;30;20435;-81
2021/04/18 06:57:29;;;;;;;4.80;4.40;;;7.60;99.90;;;;;;4671535;30;20461;-81
2021/04/18 06:59:55;;;;;;;4.93;4.37;;;7.70;99.90;;;;;;4696072;30;20434;-80
2021/04/18 07:02:28;;;;;;;4.85;4.32;;;7.60;99.90;;;;;;4697299;30;20462;-81
2021/04/18 07:04:58;;;;;;;4.28;3.92;;;7.60;99.90;;;;;;4681352;30;20438;-81
2021/04/18 07:07:27;;;;;;;5.45;4.20;;;7.60;99.90;;;;;;4691450;30;20429;-81
2021/04/18 07:09:54;;;;;;;5.25;4.45;;;7.50;99.90;;;;;;4693002;30;20433;-81
2021/04/18 07:12:32;;;;;;;5.78;5.18;;;7.50;99.90;;;;;;4688812;30;20546;-81
2021/04/18 07:14:58;;;;;;;5.95;5.35;;;7.40;99.90;;;;;;4675421;30;20430;-81
2021/04/18 07:17:24;;;;;;;6.60;5.15;;;7.30;99.90;;;;;;4677528;30;20416;-82
2021/04/18 07:20:09;;;;;;;5.40;4.90;;;7.30;99.90;;;;;;4678900;30;20418;-82
2021/04/18 07:22:35;;;;;;;5.18;4.65;;;7.40;99.90;;;;;;4698678;30;20440;-82
2021/04/18 07:25:01;;;;;;;5.10;4.60;;;7.50;99.90;;;;;;4692620;30;20418;-82
2021/04/18 07:27:47;;;;;;;5.03;4.17;;;7.60;99.90;;;;;;4699694;30;20419;-82
2021/04/18 07:30:14;;;;;;;4.85;4.20;;;7.60;99.90;;;;;;4719509;30;20755;-82
2021/04/18 07:32:40;;;;;;;4.30;3.90;;;7.70;99.90;;;;;;4687629;30;20573;-83
2021/04/18 07:35:06;;;;;;;4.22;3.83;;;7.70;99.90;;;;;;4690058;30;20429;-82
2021/04/18 07:37:34;;;;;;;4.50;3.83;;;7.70;99.90;;;;;;4715083;30;20436;-81
2021/04/18 07:40:01;;;;;;;5.70;4.20;;;7.80;99.90;;;;;;4698432;30;20433;-81
2021/04/18 07:42:27;;;;;;;4.65;3.80;;;7.80;99.90;;;;;;4703594;30;20442;-82
2021/04/18 07:44:56;;;;;;;6.37;4.00;;;7.80;99.90;;;;;;4703180;30;20444;-81
2021/04/18 07:47:23;;;;;;;4.22;3.80;;;7.80;99.90;;;;;;4691153;30;20453;-81
2021/04/18 07:49:49;;;;;;;4.03;3.58;;;7.80;99.90;;;;;;4696767;30;20425;-81
2021/04/18 07:52:18;;;;;;;3.60;3.30;;;7.70;99.90;;;;;;4687832;30;20463;-80
2021/04/18 07:54:44;;;;;;;4.35;3.88;;;7.70;99.90;;;;;;4682164;30;20442;-80
2021/04/18 07:57:10;;;;;;;4.10;3.80;;;7.80;99.90;;;;;;4673255;30;20998;-80
2021/04/18 07:59:36;;;;;;;5.10;3.42;;;7.80;99.90;;;;;;4683010;30;20441;-80
2021/04/18 08:02:02;;;;;;;5.10;4.60;;;8.00;99.90;;;;;;4680583;30;20439;-79
2021/04/18 08:04:28;;;;;;;5.25;4.78;;;7.80;99.90;;;;;;4696554;30;20974;-81
2021/04/18 08:06:54;;;;;;;6.23;5.10;;;7.80;99.90;;;;;;4687660;30;20428;-81
2021/04/18 08:09:21;;;;;;;6.38;5.30;;;7.70;99.90;;;;;;4680311;30;20488;-80
2021/04/18 08:12:05;;;;;;;5.35;4.85;;;7.70;99.90;;;;;;4688430;30;21027;-80
2021/04/18 08:14:32;;;;;;;8.50;6.15;;;7.60;99.90;;;;;;4702202;30;20425;-80
2021/04/18 08:17:12;;;;;;;5.87;5.10;;;7.70;99.90;;;;;;4680537;30;20421;-80
2021/04/18 08:19:38;;;;;;;6.97;5.93;;;7.80;99.90;;;;;;4681260;30;20417;-79
2021/04/18 08:22:04;;;;;;;7.38;6.20;;;7.90;99.90;;;;;;4692270;30;20942;-80
2021/04/18 08:24:34;;;;;;;7.53;6.72;;;7.80;99.90;;;;;;4687740;30;20495;-80
2021/04/18 08:27:13;;;;;;;6.22;5.55;;;7.90;99.90;;;;;;4651609;30;20517;-80
2021/04/18 08:29:58;;;;;;;6.18;5.60;;;7.90;99.90;;;;;;4696327;30;20923;-81
2021/04/18 08:32:46;;;;;;;7.57;5.90;;;7.90;99.90;;;;;;4676288;30;20549;-80
2021/04/18 08:35:13;;;;;;;6.13;5.43;;;7.80;99.90;;;;;;4698663;30;20456;-80
2021/04/18 08:37:39;;;;;;;9.90;6.40;;;7.60;99.90;;;;;;4695385;30;20845;-79
2021/04/18 08:40:05;;;;;;;6.28;5.68;;;7.60;99.90;;;;;;4679711;30;20420;-80
2021/04/18 08:42:31;;;;;;;5.78;5.18;;;7.60;99.90;;;;;;4677704;30;20978;-80
2021/04/18 08:44:57;;;;;;;7.00;6.30;;;7.70;99.90;;;;;;4668466;30;20436;-80
2021/04/18 08:47:25;;;;;;;6.83;6.00;;;7.80;99.90;;;;;;4670155;30;20443;-79
2021/04/18 08:50:15;;;;;;;6.40;5.82;;;7.80;99.90;;;;;;4671553;30;20504;-79
2021/04/18 08:52:41;;;;;;;6.47;5.70;;;7.90;99.90;;;;;;4664250;30;20487;-79
2021/04/18 08:55:09;;;;;;;5.65;4.80;;;8.00;99.90;;;;;;4672309;30;20439;-80
2021/04/18 08:57:35;;;;;;;5.63;5.13;;;8.00;99.90;;;;;;4682159;30;20427;-79
2021/04/18 09:00:14;;;;;;;6.53;5.15;;;8.10;99.90;;;;;;4686104;30;20436;-79
2021/04/18 09:02:40;;;;;;;5.28;4.80;;;8.00;99.90;;;;;;4665848;30;20456;-79
2021/04/18 09:05:10;;;;;;;5.78;4.97;;;8.00;99.90;;;;;;4679077;30;20948;-79
2021/04/18 09:07:40;;;;;;;5.07;4.63;;;8.10;99.90;;;;;;4680468;30;20429;-79
2021/04/18 09:10:07;;;;;;;5.30;4.80;;;8.10;99.90;;;;;;4678019;30;20429;-79
2021/04/18 09:12:33;;;;;;;5.10;4.60;;;8.10;99.90;;;;;;4694063;30;20505;-79
2021/04/18 09:14:58;;;;;;;6.27;5.33;;;8.10;99.90;;;;;;4690499;30;20488;-80
2021/04/18 09:17:34;;;;;;;5.20;4.70;;;8.10;99.90;;;;;;4682336;30;20429;-80
2021/04/18 09:20:01;;;;;;;5.65;4.80;;;8.10;99.90;;;;;;4662526;30;20428;-79
2021/04/18 09:22:27;;;;;;;6.38;5.35;;;7.90;99.90;;;;;;4681239;30;20893;-79
2021/04/18 09:25:09;;;;;;;5.17;4.77;;;7.80;99.90;;;;;;4682476;30;20982;-79
2021/04/18 09:27:38;;;;;;;5.18;4.43;;;7.80;99.90;;;;;;4691875;30;20450;-79
2021/04/18 09:30:06;;;;;;;5.10;4.63;;;8.00;99.90;;;;;;4700117;30;20436;-79
2021/04/18 09:32:34;;;;;;;5.53;5.03;;;8.00;99.90;;;;;;4665812;30;20445;-79
2021/04/18 09:34:59;;;;;;;5.22;4.72;;;8.10;99.90;;;;;;4670097;30;20437;-79
2021/04/18 09:37:32;;;;;;;5.20;4.70;;;8.10;99.90;;;;;;4674685;30;20486;-79
2021/04/18 09:40:02;;;;;;;5.00;4.60;;;8.10;99.90;;;;;;4686488;30;20433;-79
2021/04/18 09:42:29;;;;;;;5.63;5.03;;;8.20;99.90;;;;;;4680329;30;20833;-79
2021/04/18 09:45:06;;;;;;;5.95;5.35;;;8.10;99.90;;;;;;4687377;30;20482;-78
2021/04/18 09:47:31;;;;;;;6.63;5.80;;;8.20;99.90;;;;;;4667798;30;20945;-79
2021/04/18 09:49:58;;;;;;;5.97;5.47;;;8.00;99.90;;;;;;4679413;30;20424;-79
2021/04/18 09:52:29;;;;;;;7.60;6.35;;;8.10;99.90;;;;;;4660965;30;20946;-79
2021/04/18 09:55:05;;;;;;;6.15;5.47;;;8.00;99.90;;;;;;4688610;30;20438;-79
2021/04/18 09:57:30;;;;;;;6.50;5.80;;;7.90;99.90;;;;;;4683909;30;20421;-79
2021/04/18 10:00:06;;;;;;;6.03;5.50;;;7.80;99.90;;;;;;4690979;30;20970;-79
2021/04/18 10:02:31;;;;;;;6.70;6.10;;;7.90;99.90;;;;;;4682107;30;20429;-78
2021/04/18 10:05:14;;;;;;;6.43;5.83;;;8.00;99.90;;;;;;4685351;30;21020;-79
2021/04/18 10:07:40;;;;;;;8.93;7.30;;;8.00;99.90;;;;;;4690861;30;20472;-79
2021/04/18 10:10:07;;;;;;;7.22;6.53;;;7.90;99.90;;;;;;4661318;30;20472;-78
2021/04/18 10:12:49;;;;;;;7.30;6.30;;;8.00;99.90;;;;;;4674604;30;20430;-78
2021/04/18 10:15:14;;;;;;;8.40;7.60;;;8.10;99.90;;;;;;4674828;30;20506;-79
2021/04/18 10:17:40;;;;;;;8.00;7.20;;;8.10;99.90;;;;;;4662157;30;20534;-79
2021/04/18 10:20:07;;;;;;;9.02;7.78;;;8.20;99.90;;;;;;4682779;30;20424;-78
2021/04/18 10:22:33;;;;;;;10.88;8.23;;;8.30;99.90;;;;;;4669719;30;20496;-78
2021/04/18 10:24:59;;;;;;;8.85;8.05;;;8.40;99.90;;;;;;4671973;30;20471;-79
2021/04/18 10:27:32;;;;;;;9.18;8.25;;;8.30;99.90;;;;;;4692049;30;20436;-78
2021/04/18 10:30:01;;;;;;;9.60;8.48;;;8.30;99.90;;;;;;4681458;30;20424;-78
2021/04/18 10:32:27;;;;;;;10.70;9.07;;;8.40;99.90;;;;;;4683418;30;20429;-78
2021/04/18 10:34:53;;;;;;;10.63;8.90;;;8.40;99.90;;;;;;4683514;30;20436;-78
2021/04/18 10:37:19;;;;;;;9.80;8.80;;;8.40;99.90;;;;;;4688110;30;20923;-78
2021/04/18 10:39:45;;;;;;;9.95;8.95;;;8.50;99.90;;;;;;4684323;30;20447;-78
2021/04/18 10:42:11;;;;;;;9.77;8.80;;;8.50;99.90;;;;;;4672969;30;20439;-78
2021/04/18 10:44:37;;;;;;;9.35;8.15;;;8.60;99.90;;;;;;4677241;30;20501;-78
2021/04/18 10:47:04;;;;;;;9.00;8.07;;;8.70;99.90;;;;;;4683221;30;21839;-78
2021/04/18 10:49:30;;;;;;;8.85;7.95;;;8.80;99.90;;;;;;4699057;30;20434;-78
2021/04/18 10:51:56;;;;;;;8.73;7.80;;;8.90;99.90;;;;;;4692474;30;20440;-78
2021/04/18 10:54:22;;;;;;;8.27;7.43;;;9.10;99.90;;;;;;4693089;30;20940;-78
2021/04/18 10:56:48;;;;;;;8.43;7.63;;;9.10;99.90;;;;;;4678745;30;20433;-77
2021/04/18 10:59:14;;;;;;;8.02;7.00;;;9.10;99.90;;;;;;4679669;30;20472;-78
2021/04/18 11:01:40;;;;;;;8.07;7.25;;;9.20;99.90;;;;;;4688341;30;20484;-78
2021/04/18 11:04:06;;;;;;;8.90;8.00;;;9.30;99.90;;;;;;4645194;30;20497;-78
2021/04/18 11:06:32;;;;;;;8.88;7.97;;;9.30;99.90;;;;;;4673552;30;20427;-78
2021/04/18 11:08:57;;;;;;;8.67;7.17;;;9.40;99.90;;;;;;4683287;30;20433;-79
2021/04/18 11:11:24;;;;;;;8.60;7.80;;;9.50;99.90;;;;;;4680151;30;20415;-79
2021/04/18 11:13:52;;;;;;;6.90;6.30;;;9.50;99.90;;;;;;4692454;30;20433;-81
2021/04/18 11:16:19;;;;;;;8.77;7.30;;;9.50;99.90;;;;;;4668448;30;20423;-79
2021/04/18 11:18:47;;;;;;;8.57;7.68;;;9.60;99.90;;;;;;4677272;30;20437;-79
2021/04/18 11:21:13;;;;;;;7.60;6.80;;;9.60;99.90;;;;;;4676987;30;20448;-79
2021/04/18 11:23:40;;;;;;;6.75;5.97;;;9.60;99.90;;;;;;4681295;30;20938;-79
2021/04/18 11:26:05;;;;;;;6.63;6.03;;;9.60;99.90;;;;;;4684786;30;20422;-81
2021/04/18 11:28:31;;;;;;;5.93;5.32;;;9.50;99.90;;;;;;4679257;30;20437;-81
2021/04/18 11:30:57;;;;;;;5.65;5.15;;;9.40;99.90;;;;;;4705322;30;20949;-81
2021/04/18 11:33:23;;;;;;;4.93;4.50;;;9.30;99.90;;;;;;4693865;30;20425;-79
2021/04/18 11:35:50;;;;;;;6.03;5.30;;;9.30;99.90;;;;;;4682883;30;20509;-80
2021/04/18 11:38:15;;;;;;;5.38;4.88;;;9.30;99.90;;;;;;4693938;30;20430;-80
2021/04/18 11:40:41;;;;;;;5.22;4.72;;;9.40;99.90;;;;;;4679051;30;20487;-79
2021/04/18 11:43:07;;;;;;;5.30;4.80;;;9.60;99.90;;;;;;4673480;30;20451;-79
2021/04/18 11:45:33;;;;;;;6.60;4.78;;;9.70;99.90;;;;;;4663503;30;20443;-79
2021/04/18 11:47:59;;;;;;;5.50;4.78;;;9.60;99.90;;;;;;4668749;30;20447;-79
2021/04/18 11:50:24;;;;;;;5.07;4.57;;;9.50;99.90;;;;;;4670997;30;20484;-80
2021/04/18 11:52:50;;;;;;;6.47;5.45;;;9.50;99.90;;;;;;4682778;30;20438;-79
2021/04/18 11:55:16;;;;;;;5.55;4.63;;;9.50;99.90;;;;;;4685010;30;20437;-79
2021/04/18 11:57:42;;;;;;;5.93;5.20;;;9.60;99.90;;;;;;4680810;30;20437;-79
2021/04/18 12:00:09;;;;;;;5.53;4.93;;;9.50;99.90;;;;;;4684247;30;20501;-79
2021/04/18 12:02:35;;;;;;;5.75;5.15;;;9.50;99.90;;;;;;4685470;30;20509;-79
2021/04/18 12:05:01;;;;;;;6.47;5.80;;;9.60;99.90;;;;;;4668381;30;20510;-79
2021/04/18 12:07:27;;;;;;;5.37;4.87;;;9.50;99.90;;;;;;4687737;30;20435;-79
2021/04/18 12:09:52;;;;;;;5.20;4.72;;;9.40;99.90;;;;;;4670889;30;20468;-79
2021/04/18 12:12:19;;;;;;;5.70;5.20;;;9.40;99.90;;;;;;4670674;30;21127;-79
2021/04/18 12:14:46;;;;;;;5.70;5.20;;;9.50;99.90;;;;;;4691992;30;20451;-79
2021/04/18 12:17:11;;;;;;;6.47;5.10;;;9.50;99.90;;;;;;4695539;30;20450;-79
2021/04/18 12:19:37;;;;;;;6.43;5.10;;;9.60;99.90;;;;;;4680862;30;20426;-79
2021/04/18 12:22:03;;;;;;;5.90;5.30;;;9.70;99.90;;;;;;4677066;30;20446;-79
2021/04/18 12:24:28;;;;;;;6.07;5.22;;;9.80;99.90;;;;;;4674654;30;20920;-79
2021/04/18 12:26:54;;;;;;;5.13;4.63;;;9.90;99.90;;;;;;4706371;30;20439;-79
2021/04/18 12:29:20;;;;;;;5.73;4.93;;;10.00;99.90;;;;;;4688557;30;20806;-79
2021/04/18 12:31:45;;;;;;;6.90;5.47;;;10.10;99.90;;;;;;4690571;30;21131;-79
2021/04/18 12:34:11;;;;;;;6.03;5.47;;;10.20;99.90;;;;;;4688879;30;20949;-79
2021/04/18 12:36:37;;;;;;;5.97;5.47;;;10.20;99.90;;;;;;4683425;30;20421;-80
2021/04/18 12:39:06;;;;;;;5.82;5.32;;;10.20;99.90;;;;;;4669368;30;20418;-79
2021/04/18 12:41:32;;;;;;;10.40;6.20;;;10.20;99.90;;;;;;4674493;30;20420;-80
2021/04/18 12:44:24;;;;;;;5.77;5.17;;;10.20;99.90;;;;;;4675561;30;20835;-78
2021/04/18 12:46:57;;;;;;;6.28;5.68;;;10.20;99.90;;;;;;4675643;30;20460;-79
2021/04/18 12:49:23;;;;;;;6.80;6.10;;;10.20;99.90;;;;;;4681914;30;20424;-79
2021/04/18 12:51:49;;;;;;;6.30;5.13;;;10.30;99.90;;;;;;4682359;30;20426;-77
2021/04/18 12:54:15;;;;;;;6.53;5.80;;;10.30;99.90;;;;;;4681200;30;20438;-78
2021/04/18 12:56:41;;;;;;;6.63;5.88;;;10.70;99.90;;;;;;4695791;30;20425;-79
2021/04/18 12:59:07;;;;;;;6.67;5.97;;;11.30;99.90;;;;;;4681398;30;20441;-79